Aérodrome :
LOGIN :

S'inscrire | Disclaimer

   EN    FR    IT 

 










Légende :    VFR   VFR Marginal   IFR   IFR Intensif   IFR Très Intensif
Visi : 
Plafond : 
>= 8 km
>= 3000ft
5 à 8 km
1000 à 3000 ft
1500m à 5 km
500 à 1000 ft
800 à 1500m
200 à 500 ft
< 800m
< 200 ft
Symboles :   Orages  Brouillard  Fortes neiges  Fortes précipitations  Vent > 20 kt
SIGMETs :   Divers  Orages  Givrage  Turbulence  Onde Orograph.  Cendres Volcan.






- Altitude de l'aérodrome : 1959 ft
- Code IATA : HOQ


EDQM - Hof Plauen

DERNIER METAR :
  • 200650Z 25014G25KT 210V280 9999 BKN010 00/M01 Q1016

METARs EXPIRÉS :
  • 200620Z 24014KT 9999 FEW009 BKN011 BKN013 00/M01 Q1016
  • 200550Z 25015KT 9999 BKN011 00/M02 Q1016
  • 200520Z AUTO 24012KT 9999 // FEW012/// BKN063/// M00/M02 Q1016
  • 200450Z AUTO 25012KT 9999 // FEW009/// SCT069/// M01/M02 Q1016
  • 200420Z AUTO 26010KT 9999 // FEW026/// M01/M03 Q1017

TAF TAF EDQM
Valide du 20 à 07h jusqu'au 20 à 15h UTC


200613Z 2007/2015 24013KT 9999 BKN010
PROB40
TEMPO 2007/2010 32015G25KT 2000 SHSNGS BKN008CB
BECMG 2009/2011 30013KT SCT012 BKN020
PROB30
TEMPO 2010/2015 30015G25KT 3000 -SHSN BKN012TCU



MET'MAP, la Météo Aéronautique d'un coup d'oeil ! - Copyright ORBIFLY Décembre 2007 - Disclaimer

ORBIFLY MET'MAP TEAM :

Programmation & Développement : Alexandra Zaïnal
Sur une idée originale de : Baudouin d'Aumeries
Assistance à la programmation : Marc-Olivier Méhu
Soutien technique & logistique : Manuel Goepfert

Contact : metmap@orbifly.com




SOURCES & CREDITS :

   NOAA